Cedarvale, New Mexico
Current Conditions -  °F | °C
As of 12:53 PM on Thursday 30 Oct 2014 (Local Time) from KCQC Reporting Station
Clear Clear  
Wind Chill: 61°   Ceiling: Unl
Heat Index: 61°   Visibility: 10mi
Dew Point: 18°   Wind: 10mph
Humidity: 19%   Direction: 90°E
Pressure: 30.39"   Gusts: 18mph
Location:  34.37°N, 105.7°W
Report Text: KCQC 301853Z AUTO 09009G16KT 10SM CLR 16/M08 A3039 RMK AO2 SLP234 T01611078
Loading
Personal Weather Stations






























Interactive Weather Map
Tropical Storm Tracking
New forecast layout! Learn more

10-Day Weather Forecast

Advertisements
Track Severe Weather on mobile